BOS weather

General Edward Lawrence Logan International Airport
Boston, Massachusetts, United States

Public forecast

Using degrees Fahrenheit for public forecast. Weather courtesy of forecast.io.

METAR (pilot weather report)

Report is more than 6 hours old.

Retrieved 2017/05/23 23:54 UTC (1 day ago):

KBOS 242354Z 09007KT 10SM FEW100 SCT220 BKN320 13/11 A2983 RMK AO2 SLP100 T01330106 10178 20133 50001

TAF (pilot weather forecast)

Forecast is more than 12 hours old.

Retrieved 2017/05/24 00:27 UTC (1 day ago):

TAF KBOS 242322Z 2500/2606 10005KT P6SM SCT250 FM250800 08010KT P6SM OVC080 FM251400 08014KT P6SM -SHRA OVC050 FM251600 08014G21KT 4SM -SHRA OVC010 FM260000 05012KT 2SM -SHRA BR OVC008